createdAt,value
2023-01-10T00:14:26.853Z,92
2023-01-10T00:43:36.169Z,91
2023-01-10T01:12:42.862Z,91
2023-01-10T01:41:49.625Z,91
2023-01-10T02:11:03.597Z,91
2023-01-10T02:40:20.960Z,90
2023-01-10T03:09:18.919Z,88
2023-01-10T03:38:29.710Z,89
2023-01-10T04:07:36.479Z,87
2023-01-10T04:36:42.733Z,87
2023-01-10T05:06:01.288Z,86
2023-01-10T05:35:20.082Z,86
2023-01-10T06:04:34.115Z,86
2023-01-10T06:33:54.204Z,87
2023-01-10T07:03:08.699Z,88
2023-01-10T07:32:19.652Z,87
2023-01-10T08:01:38.955Z,85
2023-01-10T08:30:51.323Z,83
2023-01-10T08:59:52.252Z,84
2023-01-10T09:29:07.549Z,83
2023-01-10T09:58:29.762Z,83
2023-01-10T10:27:50.184Z,84
2023-01-10T10:57:02.413Z,79
2023-01-10T11:26:15.341Z,77
2023-01-10T11:55:30.385Z,77
2023-01-10T12:24:42.225Z,72
2023-01-10T12:53:57.679Z,67
2023-01-10T13:23:10.229Z,67
2023-01-10T13:52:30.308Z,66
2023-01-10T14:21:34.957Z,65
2023-01-10T14:50:41.703Z,66
2023-01-10T15:19:51.522Z,66
2023-01-10T15:49:03.412Z,68
2023-01-10T16:18:06.539Z,69
2023-01-10T16:47:08.486Z,67
2023-01-10T17:16:20.497Z,69
2023-01-10T17:45:16.415Z,69
2023-01-10T18:14:30.578Z,69
2023-01-10T18:43:51.126Z,67
2023-01-10T19:13:05.689Z,67
2023-01-10T19:42:26.775Z,64
2023-01-10T20:11:47.584Z,64
2023-01-10T20:40:59.773Z,62
2023-01-10T21:10:18.698Z,63
2023-01-10T21:39:39.334Z,62
2023-01-10T22:08:47.776Z,64
2023-01-10T22:38:06.880Z,64
2023-01-10T23:07:28.880Z,66
2023-01-10T23:36:55.020Z,68
